sensor_id;sensor_type;location;lat;lon;timestamp;pressure;altitude;pressure_sealevel;temperature;humidity
7614;BME280;3848;42.016;23.098;2023-09-19T00:00:56;97418.72;;;17.50;100.00
7614;BME280;3848;42.016;23.098;2023-09-19T00:03:23;97438.25;;;17.56;100.00
7614;BME280;3848;42.016;23.098;2023-09-19T00:05:52;97429.88;;;17.49;100.00
7614;BME280;3848;42.016;23.098;2023-09-19T00:08:21;97425.75;;;17.44;100.00
7614;BME280;3848;42.016;23.098;2023-09-19T00:10:50;97441.16;;;17.44;100.00
7614;BME280;3848;42.016;23.098;2023-09-19T00:13:19;97428.56;;;17.36;100.00
7614;BME280;3848;42.016;23.098;2023-09-19T00:15:47;97430.94;;;17.42;100.00
7614;BME280;3848;42.016;23.098;2023-09-19T00:18:15;97429.22;;;17.43;100.00
7614;BME280;3848;42.016;23.098;2023-09-19T00:20:42;97411.38;;;17.38;100.00
7614;BME280;3848;42.016;23.098;2023-09-19T00:23:14;97426.78;;;17.38;100.00
7614;BME280;3848;42.016;23.098;2023-09-19T00:25:42;97423.53;;;17.33;100.00
7614;BME280;3848;42.016;23.098;2023-09-19T00:28:08;97424.47;;;17.30;100.00
7614;BME280;3848;42.016;23.098;2023-09-19T00:30:35;97422.81;;;17.28;100.00
7614;BME280;3848;42.016;23.098;2023-09-19T00:33:04;97425.47;;;17.25;100.00
7614;BME280;3848;42.016;23.098;2023-09-19T00:35:33;97424.53;;;17.27;100.00
7614;BME280;3848;42.016;23.098;2023-09-19T00:38:00;97427.94;;;17.29;100.00
7614;BME280;3848;42.016;23.098;2023-09-19T00:40:28;97427.09;;;17.27;100.00
7614;BME280;3848;42.016;23.098;2023-09-19T00:42:57;97428.84;;;17.27;100.00
7614;BME280;3848;42.016;23.098;2023-09-19T00:45:25;97402.91;;;17.06;100.00
7614;BME280;3848;42.016;23.098;2023-09-19T00:47:52;97432.38;;;17.23;100.00
7614;BME280;3848;42.016;23.098;2023-09-19T00:50:21;97431.69;;;17.18;100.00
7614;BME280;3848;42.016;23.098;2023-09-19T00:52:50;97432.84;;;17.08;100.00
7614;BME280;3848;42.016;23.098;2023-09-19T00:55:21;97433.81;;;17.03;100.00
7614;BME280;3848;42.016;23.098;2023-09-19T00:57:49;97419.44;;;16.98;100.00
7614;BME280;3848;42.016;23.098;2023-09-19T01:00:17;97424.66;;;16.95;100.00
7614;BME280;3848;42.016;23.098;2023-09-19T01:02:46;97384.41;;;16.64;100.00
7614;BME280;3848;42.016;23.098;2023-09-19T01:05:13;97393.00;;;16.63;100.00
7614;BME280;3848;42.016;23.098;2023-09-19T01:07:41;97423.25;;;16.83;100.00
7614;BME280;3848;42.016;23.098;2023-09-19T01:10:11;97423.34;;;16.80;100.00
7614;BME280;3848;42.016;23.098;2023-09-19T01:12:48;97424.28;;;16.77;100.00
7614;BME280;3848;42.016;23.098;2023-09-19T01:15:28;97420.09;;;16.75;100.00
7614;BME280;3848;42.016;23.098;2023-09-19T01:18:05;97417.75;;;16.67;100.00
7614;BME280;3848;42.016;23.098;2023-09-19T01:20:39;97424.72;;;16.61;100.00
7614;BME280;3848;42.016;23.098;2023-09-19T01:23:16;97428.97;;;16.62;100.00
7614;BME280;3848;42.016;23.098;2023-09-19T01:26:07;97440.00;;;16.67;100.00
7614;BME280;3848;42.016;23.098;2023-09-19T01:28:51;97432.28;;;16.67;100.00
7614;BME280;3848;42.016;23.098;2023-09-19T01:31:24;97424.63;;;16.64;100.00
7614;BME280;3848;42.016;23.098;2023-09-19T01:33:58;97409.34;;;16.59;100.00
7614;BME280;3848;42.016;23.098;2023-09-19T01:36:30;97402.47;;;16.61;100.00
7614;BME280;3848;42.016;23.098;2023-09-19T01:38:59;97407.47;;;16.67;100.00
7614;BME280;3848;42.016;23.098;2023-09-19T01:41:45;97406.63;;;16.67;100.00
7614;BME280;3848;42.016;23.098;2023-09-19T01:44:21;97418.69;;;16.62;100.00
7614;BME280;3848;42.016;23.098;2023-09-19T01:46:50;97384.97;;;16.44;100.00
7614;BME280;3848;42.016;23.098;2023-09-19T01:49:25;97411.97;;;16.58;100.00
7614;BME280;3848;42.016;23.098;2023-09-19T01:52:00;97407.59;;;16.61;100.00
7614;BME280;3848;42.016;23.098;2023-09-19T01:54:33;97406.84;;;16.58;100.00
7614;BME280;3848;42.016;23.098;2023-09-19T01:57:07;97383.22;;;16.46;100.00
7614;BME280;3848;42.016;23.098;2023-09-19T01:59:43;97404.53;;;16.49;100.00
7614;BME280;3848;42.016;23.098;2023-09-19T02:02:13;97399.69;;;16.38;100.00
7614;BME280;3848;42.016;23.098;2023-09-19T02:04:41;97399.81;;;16.33;100.00
7614;BME280;3848;42.016;23.098;2023-09-19T02:07:08;97399.00;;;16.31;100.00
7614;BME280;3848;42.016;23.098;2023-09-19T02:09:35;97377.88;;;16.22;100.00
7614;BME280;3848;42.016;23.098;2023-09-19T02:12:05;97400.06;;;16.24;100.00
7614;BME280;3848;42.016;23.098;2023-09-19T02:14:32;97405.34;;;16.18;100.00
7614;BME280;3848;42.016;23.098;2023-09-19T02:17:01;97388.44;;;16.11;100.00
7614;BME280;3848;42.016;23.098;2023-09-19T02:19:30;97406.13;;;16.20;100.00
7614;BME280;3848;42.016;23.098;2023-09-19T02:21:59;97401.84;;;16.21;100.00
7614;BME280;3848;42.016;23.098;2023-09-19T02:24:27;97355.66;;;15.90;100.00
7614;BME280;3848;42.016;23.098;2023-09-19T02:26:54;97390.28;;;16.06;100.00
7614;BME280;3848;42.016;23.098;2023-09-19T02:29:21;97380.13;;;16.01;100.00
7614;BME280;3848;42.016;23.098;2023-09-19T02:31:48;97393.72;;;16.05;100.00
7614;BME280;3848;42.016;23.098;2023-09-19T02:34:15;97397.97;;;16.06;100.00
7614;BME280;3848;42.016;23.098;2023-09-19T02:36:44;97393.78;;;16.02;100.00
7614;BME280;3848;42.016;23.098;2023-09-19T02:39:12;97383.59;;;15.99;100.00
7614;BME280;3848;42.016;23.098;2023-09-19T02:41:38;97356.66;;;15.84;100.00
7614;BME280;3848;42.016;23.098;2023-09-19T02:44:07;97385.25;;;16.01;100.00
7614;BME280;3848;42.016;23.098;2023-09-19T02:46:34;97395.44;;;16.04;100.00
7614;BME280;3848;42.016;23.098;2023-09-19T02:49:02;97384.34;;;16.04;100.00
7614;BME280;3848;42.016;23.098;2023-09-19T02:51:30;97381.84;;;16.01;100.00
7614;BME280;3848;42.016;23.098;2023-09-19T02:53:59;97383.69;;;15.96;100.00
7614;BME280;3848;42.016;23.098;2023-09-19T02:56:28;97388.94;;;15.91;100.00
7614;BME280;3848;42.016;23.098;2023-09-19T02:58:56;97389.94;;;15.85;100.00
7614;BME280;3848;42.016;23.098;2023-09-19T03:01:23;97396.88;;;15.80;100.00
7614;BME280;3848;42.016;23.098;2023-09-19T03:03:50;97377.59;;;15.67;100.00
7614;BME280;3848;42.016;23.098;2023-09-19T03:06:17;97379.97;;;15.73;100.00
7614;BME280;3848;42.016;23.098;2023-09-19T03:08:45;97374.09;;;15.70;100.00
7614;BME280;3848;42.016;23.098;2023-09-19T03:11:15;97386.63;;;15.80;100.00
7614;BME280;3848;42.016;23.098;2023-09-19T03:13:51;97368.47;;;15.54;100.00
7614;BME280;3848;42.016;23.098;2023-09-19T03:16:18;97359.97;;;15.52;100.00
7614;BME280;3848;42.016;23.098;2023-09-19T03:18:47;97388.03;;;15.56;100.00
7614;BME280;3848;42.016;23.098;2023-09-19T03:21:15;97383.03;;;15.52;100.00
7614;BME280;3848;42.016;23.098;2023-09-19T03:23:42;97378.19;;;15.40;100.00
7614;BME280;3848;42.016;23.098;2023-09-19T03:26:11;97373.94;;;15.39;100.00
7614;BME280;3848;42.016;23.098;2023-09-19T03:28:41;97380.97;;;15.31;100.00
7614;BME280;3848;42.016;23.098;2023-09-19T03:31:08;97373.50;;;15.20;100.00
7614;BME280;3848;42.016;23.098;2023-09-19T03:33:35;97389.84;;;15.14;100.00
7614;BME280;3848;42.016;23.098;2023-09-19T03:36:03;97395.13;;;15.08;100.00
7614;BME280;3848;42.016;23.098;2023-09-19T03:38:31;97401.19;;;15.04;100.00
7614;BME280;3848;42.016;23.098;2023-09-19T03:41:00;97396.97;;;15.02;100.00
7614;BME280;3848;42.016;23.098;2023-09-19T03:43:26;97406.31;;;15.04;100.00
7614;BME280;3848;42.016;23.098;2023-09-19T03:45:55;97412.16;;;15.09;100.00
7614;BME280;3848;42.016;23.098;2023-09-19T03:48:22;97403.50;;;15.15;100.00
7614;BME280;3848;42.016;23.098;2023-09-19T03:50:49;97402.56;;;15.19;100.00
7614;BME280;3848;42.016;23.098;2023-09-19T03:53:16;97409.25;;;15.26;100.00
7614;BME280;3848;42.016;23.098;2023-09-19T03:55:44;97408.31;;;15.29;100.00
7614;BME280;3848;42.016;23.098;2023-09-19T03:58:11;97403.28;;;15.25;100.00
7614;BME280;3848;42.016;23.098;2023-09-19T04:00:38;97411.75;;;15.28;100.00
7614;BME280;3848;42.016;23.098;2023-09-19T04:03:07;97410.81;;;15.32;100.00
7614;BME280;3848;42.016;23.098;2023-09-19T04:05:34;97412.50;;;15.33;100.00
7614;BME280;3848;42.016;23.098;2023-09-19T04:08:01;97414.25;;;15.31;100.00
7614;BME280;3848;42.016;23.098;2023-09-19T04:10:28;97414.31;;;15.28;100.00
7614;BME280;3848;42.016;23.098;2023-09-19T04:12:55;97404.28;;;15.18;100.00
7614;BME280;3848;42.016;23.098;2023-09-19T04:15:23;97402.41;;;15.27;100.00
7614;BME280;3848;42.016;23.098;2023-09-19T04:17:50;97408.47;;;15.22;100.00
7614;BME280;3848;42.016;23.098;2023-09-19T04:20:19;97423.72;;;15.27;100.00
7614;BME280;3848;42.016;23.098;2023-09-19T04:22:48;97429.00;;;15.19;100.00
7614;BME280;3848;42.016;23.098;2023-09-19T04:25:15;97445.16;;;15.23;100.00
7614;BME280;3848;42.016;23.098;2023-09-19T04:27:42;97432.38;;;15.21;100.00
7614;BME280;3848;42.016;23.098;2023-09-19T04:30:10;97441.91;;;15.15;100.00
7614;BME280;3848;42.016;23.098;2023-09-19T04:32:38;97397.06;;;14.97;100.00
7614;BME280;3848;42.016;23.098;2023-09-19T04:35:07;97393.78;;;14.90;100.00
7614;BME280;3848;42.016;23.098;2023-09-19T04:37:37;97441.06;;;15.14;100.00
7614;BME280;3848;42.016;23.098;2023-09-19T04:40:08;97431.72;;;15.12;100.00
7614;BME280;3848;42.016;23.098;2023-09-19T04:42:39;97437.53;;;15.18;100.00
7614;BME280;3848;42.016;23.098;2023-09-19T04:45:07;97440.94;;;15.20;100.00
7614;BME280;3848;42.016;23.098;2023-09-19T04:47:36;97440.06;;;15.21;100.00
7614;BME280;3848;42.016;23.098;2023-09-19T04:50:06;97443.50;;;15.20;100.00
7614;BME280;3848;42.016;23.098;2023-09-19T04:52:33;97439.28;;;15.18;100.00
7614;BME280;3848;42.016;23.098;2023-09-19T04:55:01;97440.09;;;15.18;100.00
7614;BME280;3848;42.016;23.098;2023-09-19T04:57:29;97441.78;;;15.19;100.00
7614;BME280;3848;42.016;23.098;2023-09-19T04:59:57;97428.25;;;15.14;100.00
7614;BME280;3848;42.016;23.098;2023-09-19T05:02:24;97435.03;;;15.17;100.00
7614;BME280;3848;42.016;23.098;2023-09-19T05:04:51;97431.03;;;15.05;100.00
7614;BME280;3848;42.016;23.098;2023-09-19T05:07:19;97441.16;;;15.10;100.00
7614;BME280;3848;42.016;23.098;2023-09-19T05:09:47;97442.88;;;15.09;100.00
7614;BME280;3848;42.016;23.098;2023-09-19T05:12:33;97441.19;;;15.08;100.00
7614;BME280;3848;42.016;23.098;2023-09-19T05:15:01;97435.19;;;15.09;100.00
7614;BME280;3848;42.016;23.098;2023-09-19T05:17:28;97437.63;;;15.15;100.00
7614;BME280;3848;42.016;23.098;2023-09-19T05:19:55;97439.22;;;15.19;100.00
7614;BME280;3848;42.016;23.098;2023-09-19T05:22:22;97436.66;;;15.21;100.00
7614;BME280;3848;42.016;23.098;2023-09-19T05:24:50;97441.00;;;15.17;100.00
7614;BME280;3848;42.016;23.098;2023-09-19T05:27:18;97435.94;;;15.14;100.00
7614;BME280;3848;42.016;23.098;2023-09-19T05:29:47;97427.38;;;15.15;100.00
7614;BME280;3848;42.016;23.098;2023-09-19T05:32:16;97428.00;;;15.27;100.00
7614;BME280;3848;42.016;23.098;2023-09-19T05:34:45;97429.66;;;15.29;100.00
7614;BME280;3848;42.016;23.098;2023-09-19T05:37:14;97418.41;;;15.35;100.00
7614;BME280;3848;42.016;23.098;2023-09-19T05:39:41;97408.03;;;15.41;100.00
7614;BME280;3848;42.016;23.098;2023-09-19T05:42:08;97426.66;;;15.49;100.00
7614;BME280;3848;42.016;23.098;2023-09-19T05:44:35;97424.84;;;15.52;100.00
7614;BME280;3848;42.016;23.098;2023-09-19T05:47:04;97419.50;;;15.65;100.00
7614;BME280;3848;42.016;23.098;2023-09-19T05:49:31;97410.81;;;15.70;100.00
7614;BME280;3848;42.016;23.098;2023-09-19T05:51:58;97409.69;;;15.80;100.00
7614;BME280;3848;42.016;23.098;2023-09-19T05:54:26;97394.41;;;15.77;100.00
7614;BME280;3848;42.016;23.098;2023-09-19T05:56:53;97402.53;;;15.95;100.00
7614;BME280;3848;42.016;23.098;2023-09-19T05:59:20;97413.41;;;16.03;100.00
7614;BME280;3848;42.016;23.098;2023-09-19T06:01:48;97383.59;;;15.99;100.00
7614;BME280;3848;42.016;23.098;2023-09-19T06:04:16;97393.34;;;16.19;100.00
7614;BME280;3848;42.016;23.098;2023-09-19T06:06:44;97395.25;;;16.43;100.00
7614;BME280;3848;42.016;23.098;2023-09-19T06:09:14;97399.16;;;16.58;100.00
7614;BME280;3848;42.016;23.098;2023-09-19T06:11:41;97400.53;;;16.71;100.00
7614;BME280;3848;42.016;23.098;2023-09-19T06:14:08;97396.16;;;16.74;100.00
7614;BME280;3848;42.016;23.098;2023-09-19T06:16:36;97394.13;;;16.84;100.00
7614;BME280;3848;42.016;23.098;2023-09-19T06:19:03;97397.16;;;16.98;100.00
7614;BME280;3848;42.016;23.098;2023-09-19T06:21:33;97385.59;;;17.13;100.00
7614;BME280;3848;42.016;23.098;2023-09-19T06:24:00;97380.84;;;17.29;100.00
7614;BME280;3848;42.016;23.098;2023-09-19T06:26:27;97390.53;;;17.47;100.00
7614;BME280;3848;42.016;23.098;2023-09-19T06:28:55;97391.03;;;17.58;100.00
7614;BME280;3848;42.016;23.098;2023-09-19T06:31:22;97392.47;;;17.67;100.00
7614;BME280;3848;42.016;23.098;2023-09-19T06:33:51;97388.59;;;17.82;100.00
7614;BME280;3848;42.016;23.098;2023-09-19T06:36:18;97385.81;;;17.88;100.00
7614;BME280;3848;42.016;23.098;2023-09-19T06:38:47;97388.09;;;17.97;100.00
7614;BME280;3848;42.016;23.098;2023-09-19T06:41:16;97354.03;;;17.90;100.00
7614;BME280;3848;42.016;23.098;2023-09-19T06:43:44;97390.50;;;18.26;100.00
7614;BME280;3848;42.016;23.098;2023-09-19T06:46:10;97389.16;;;18.41;100.00
7614;BME280;3848;42.016;23.098;2023-09-19T06:48:38;97378.38;;;18.55;100.00
7614;BME280;3848;42.016;23.098;2023-09-19T06:51:05;97392.31;;;18.74;100.00
7614;BME280;3848;42.016;23.098;2023-09-19T06:53:32;97389.97;;;18.90;100.00
7614;BME280;3848;42.016;23.098;2023-09-19T06:56:01;97372.53;;;18.98;100.00
7614;BME280;3848;42.016;23.098;2023-09-19T06:58:29;97372.03;;;19.10;100.00
7614;BME280;3848;42.016;23.098;2023-09-19T07:00:57;97386.78;;;19.29;100.00
7614;BME280;3848;42.016;23.098;2023-09-19T07:03:23;97367.91;;;19.28;100.00
7614;BME280;3848;42.016;23.098;2023-09-19T07:05:52;97375.13;;;19.42;100.00
7614;BME280;3848;42.016;23.098;2023-09-19T07:08:21;97382.16;;;19.60;100.00
7614;BME280;3848;42.016;23.098;2023-09-19T07:10:48;97370.44;;;19.73;100.00
7614;BME280;3848;42.016;23.098;2023-09-19T07:13:19;97376.84;;;19.85;100.00
7614;BME280;3848;42.016;23.098;2023-09-19T07:15:46;97386.97;;;19.90;100.00
7614;BME280;3848;42.016;23.098;2023-09-19T07:18:14;97383.28;;;19.95;100.00
7614;BME280;3848;42.016;23.098;2023-09-19T07:20:43;97346.16;;;19.79;100.00
7614;BME280;3848;42.016;23.098;2023-09-19T07:23:14;97385.44;;;20.06;100.00
7614;BME280;3848;42.016;23.098;2023-09-19T07:25:42;97373.75;;;20.18;100.00
7614;BME280;3848;42.016;23.098;2023-09-19T07:28:09;97380.63;;;20.37;100.00
7614;BME280;3848;42.016;23.098;2023-09-19T07:30:37;97380.22;;;20.48;100.00
7614;BME280;3848;42.016;23.098;2023-09-19T07:33:05;97344.41;;;20.39;100.00
7614;BME280;3848;42.016;23.098;2023-09-19T07:35:32;97371.25;;;20.76;100.00
7614;BME280;3848;42.016;23.098;2023-09-19T07:37:59;97366.69;;;20.81;100.00
7614;BME280;3848;42.016;23.098;2023-09-19T07:40:27;97366.78;;;20.98;100.00
7614;BME280;3848;42.016;23.098;2023-09-19T07:42:55;97365.00;;;21.17;100.00
7614;BME280;3848;42.016;23.098;2023-09-19T07:45:22;97367.00;;;21.31;100.00
7614;BME280;3848;42.016;23.098;2023-09-19T07:47:52;97362.13;;;21.42;100.00
7614;BME280;3848;42.016;23.098;2023-09-19T07:50:19;97358.91;;;21.56;100.00
7614;BME280;3848;42.016;23.098;2023-09-19T07:52:47;97358.31;;;21.68;100.00
7614;BME280;3848;42.016;23.098;2023-09-19T07:55:16;97357.41;;;21.69;100.00
7614;BME280;3848;42.016;23.098;2023-09-19T07:57:45;97334.28;;;21.66;100.00
7614;BME280;3848;42.016;23.098;2023-09-19T08:00:12;97346.28;;;21.84;100.00
7614;BME280;3848;42.016;23.098;2023-09-19T08:02:40;97357.00;;;21.77;100.00
7614;BME280;3848;42.016;23.098;2023-09-19T08:05:10;97345.00;;;21.76;100.00
7614;BME280;3848;42.016;23.098;2023-09-19T08:07:37;97330.00;;;21.82;100.00
7614;BME280;3848;42.016;23.098;2023-09-19T08:10:06;97347.06;;;21.86;100.00
7614;BME280;3848;42.016;23.098;2023-09-19T08:12:38;97341.09;;;22.02;100.00
7614;BME280;3848;42.016;23.098;2023-09-19T08:15:12;97342.03;;;22.18;100.00
7614;BME280;3848;42.016;23.098;2023-09-19T08:17:39;97363.47;;;22.37;100.00
7614;BME280;3848;42.016;23.098;2023-09-19T08:20:07;97340.28;;;22.51;100.00
7614;BME280;3848;42.016;23.098;2023-09-19T08:22:44;97341.13;;;22.52;100.00
7614;BME280;3848;42.016;23.098;2023-09-19T08:25:14;97341.56;;;22.60;100.00
7614;BME280;3848;42.016;23.098;2023-09-19T08:27:43;97347.16;;;22.68;100.00
7614;BME280;3848;42.016;23.098;2023-09-19T08:30:13;97342.16;;;22.81;100.00
7614;BME280;3848;42.016;23.098;2023-09-19T08:32:41;97339.53;;;22.98;100.00
7614;BME280;3848;42.016;23.098;2023-09-19T08:35:08;97293.28;;;22.75;100.00
7614;BME280;3848;42.016;23.098;2023-09-19T08:37:36;97345.72;;;23.11;100.00
7614;BME280;3848;42.016;23.098;2023-09-19T08:40:04;97340.47;;;23.13;100.00
7614;BME280;3848;42.016;23.098;2023-09-19T08:42:47;97348.25;;;23.13;100.00
7614;BME280;3848;42.016;23.098;2023-09-19T08:45:15;97345.03;;;23.24;100.00
7614;BME280;3848;42.016;23.098;2023-09-19T08:47:46;97353.16;;;23.18;100.00
7614;BME280;3848;42.016;23.098;2023-09-19T08:50:19;97343.38;;;23.23;100.00
7614;BME280;3848;42.016;23.098;2023-09-19T08:52:47;97330.50;;;23.21;99.58
7614;BME280;3848;42.016;23.098;2023-09-19T08:55:23;97344.03;;;23.26;98.79
7614;BME280;3848;42.016;23.098;2023-09-19T08:57:59;97342.44;;;23.24;100.00
7614;BME280;3848;42.016;23.098;2023-09-19T09:00:28;97316.16;;;23.30;100.00
7614;BME280;3848;42.016;23.098;2023-09-19T09:02:56;97330.69;;;23.48;97.48
7614;BME280;3848;42.016;23.098;2023-09-19T09:05:24;97317.72;;;23.64;100.00
7614;BME280;3848;42.016;23.098;2023-09-19T09:07:52;97307.38;;;23.78;96.72
7614;BME280;3848;42.016;23.098;2023-09-19T09:10:23;97313.34;;;24.09;94.53
7614;BME280;3848;42.016;23.098;2023-09-19T09:12:52;97296.84;;;24.10;89.78
7614;BME280;3848;42.016;23.098;2023-09-19T09:15:21;97307.75;;;24.30;91.51
7614;BME280;3848;42.016;23.098;2023-09-19T09:17:49;97293.44;;;24.52;85.14
7614;BME280;3848;42.016;23.098;2023-09-19T09:20:18;97290.03;;;24.92;84.01
7614;BME280;3848;42.016;23.098;2023-09-19T09:22:52;97288.22;;;25.21;80.41
7614;BME280;3848;42.016;23.098;2023-09-19T09:25:20;97285.72;;;25.60;81.10
7614;BME280;3848;42.016;23.098;2023-09-19T09:28:00;97276.31;;;25.84;71.88
7614;BME280;3848;42.016;23.098;2023-09-19T09:30:34;97280.69;;;25.96;69.36
7614;BME280;3848;42.016;23.098;2023-09-19T09:33:09;97253.81;;;25.83;69.50
7614;BME280;3848;42.016;23.098;2023-09-19T09:35:37;97262.66;;;26.19;70.71
7614;BME280;3848;42.016;23.098;2023-09-19T09:38:04;97256.97;;;26.63;69.61
7614;BME280;3848;42.016;23.098;2023-09-19T09:40:46;97255.97;;;26.89;65.98
7614;BME280;3848;42.016;23.098;2023-09-19T09:43:33;97225.28;;;27.17;65.43
7614;BME280;3848;42.016;23.098;2023-09-19T09:46:09;97230.72;;;27.38;62.63
7614;BME280;3848;42.016;23.098;2023-09-19T09:49:01;97097.22;;;26.61;60.62
7614;BME280;3848;42.016;23.098;2023-09-19T09:51:43;97230.34;;;27.42;63.19
7614;BME280;3848;42.016;23.098;2023-09-19T09:54:14;97221.22;;;27.37;62.91
7614;BME280;3848;42.016;23.098;2023-09-19T09:56:56;97227.06;;;27.16;63.71
7614;BME280;3848;42.016;23.098;2023-09-19T09:59:47;97224.00;;;27.22;65.82
7614;BME280;3848;42.016;23.098;2023-09-19T10:02:16;97221.06;;;27.03;64.08
7614;BME280;3848;42.016;23.098;2023-09-19T10:04:49;97214.63;;;26.96;66.17
7614;BME280;3848;42.016;23.098;2023-09-19T10:07:28;97213.25;;;27.03;68.78
7614;BME280;3848;42.016;23.098;2023-09-19T10:09:59;97203.25;;;26.97;65.90
7614;BME280;3848;42.016;23.098;2023-09-19T10:12:38;97216.81;;;27.02;65.32
7614;BME280;3848;42.016;23.098;2023-09-19T10:15:08;97219.69;;;27.10;67.34
7614;BME280;3848;42.016;23.098;2023-09-19T10:17:40;97196.72;;;27.26;63.27
7614;BME280;3848;42.016;23.098;2023-09-19T10:20:12;97201.47;;;27.21;64.07
7614;BME280;3848;42.016;23.098;2023-09-19T10:22:48;97200.09;;;27.40;62.14
7614;BME280;3848;42.016;23.098;2023-09-19T10:25:25;97197.25;;;27.43;62.88
7614;BME280;3848;42.016;23.098;2023-09-19T10:27:54;97185.69;;;27.69;67.29
7614;BME280;3848;42.016;23.098;2023-09-19T10:30:24;97185.97;;;28.00;61.93
7614;BME280;3848;42.016;23.098;2023-09-19T10:33:00;97190.47;;;28.42;63.85
7614;BME280;3848;42.016;23.098;2023-09-19T10:35:27;97181.06;;;28.94;62.14
7614;BME280;3848;42.016;23.098;2023-09-19T10:37:55;97172.97;;;29.50;60.64
7614;BME280;3848;42.016;23.098;2023-09-19T10:40:24;97173.47;;;29.95;53.34
7614;BME280;3848;42.016;23.098;2023-09-19T10:43:00;97162.66;;;30.10;52.32
7614;BME280;3848;42.016;23.098;2023-09-19T10:45:30;97167.25;;;30.17;52.65
7614;BME280;3848;42.016;23.098;2023-09-19T10:47:58;97144.09;;;29.92;50.84
7614;BME280;3848;42.016;23.098;2023-09-19T10:50:27;97152.31;;;30.08;51.22
7614;BME280;3848;42.016;23.098;2023-09-19T10:53:00;97156.50;;;30.20;51.42
7614;BME280;3848;42.016;23.098;2023-09-19T10:55:31;97145.78;;;30.52;52.16
7614;BME280;3848;42.016;23.098;2023-09-19T10:58:01;97142.38;;;31.00;51.98
7614;BME280;3848;42.016;23.098;2023-09-19T11:00:55;97132.22;;;31.73;47.21
7614;BME280;3848;42.016;23.098;2023-09-19T11:03:27;97132.63;;;32.05;45.56
7614;BME280;3848;42.016;23.098;2023-09-19T11:06:07;97122.56;;;32.46;47.51
7614;BME280;3848;42.016;23.098;2023-09-19T11:08:55;97088.16;;;32.75;44.98
7614;BME280;3848;42.016;23.098;2023-09-19T11:11:46;97120.00;;;33.25;42.32
7614;BME280;3848;42.016;23.098;2023-09-19T11:14:40;97115.81;;;33.32;42.12
7614;BME280;3848;42.016;23.098;2023-09-19T11:17:43;97102.38;;;33.44;41.73
7614;BME280;3848;42.016;23.098;2023-09-19T11:20:30;97104.63;;;33.64;41.77
7614;BME280;3848;42.016;23.098;2023-09-19T11:23:20;97088.66;;;34.00;41.71
7614;BME280;3848;42.016;23.098;2023-09-19T11:25:53;97079.00;;;34.25;39.24
7614;BME280;3848;42.016;23.098;2023-09-19T11:28:30;97080.00;;;34.16;41.08
7614;BME280;3848;42.016;23.098;2023-09-19T11:30:57;97074.88;;;33.80;40.40
7614;BME280;3848;42.016;23.098;2023-09-19T11:33:27;97082.38;;;33.59;39.56
7614;BME280;3848;42.016;23.098;2023-09-19T11:35:59;97071.72;;;33.43;40.54
7614;BME280;3848;42.016;23.098;2023-09-19T11:39:00;97068.63;;;33.47;40.53
7614;BME280;3848;42.016;23.098;2023-09-19T11:41:43;97065.81;;;33.49;40.03
7614;BME280;3848;42.016;23.098;2023-09-19T11:44:33;97046.34;;;33.33;39.10
7614;BME280;3848;42.016;23.098;2023-09-19T11:47:05;97000.78;;;33.23;38.83
7614;BME280;3848;42.016;23.098;2023-09-19T11:49:34;97038.63;;;33.82;39.36
7614;BME280;3848;42.016;23.098;2023-09-19T11:52:03;97020.22;;;33.90;38.95
7614;BME280;3848;42.016;23.098;2023-09-19T11:54:32;97028.59;;;34.36;38.69
7614;BME280;3848;42.016;23.098;2023-09-19T11:56:59;97025.81;;;34.62;37.52
7614;BME280;3848;42.016;23.098;2023-09-19T11:59:28;97009.44;;;34.50;36.29
7614;BME280;3848;42.016;23.098;2023-09-19T12:01:56;97020.47;;;34.30;36.24
7614;BME280;3848;42.016;23.098;2023-09-19T12:04:36;97007.84;;;33.91;37.21
7614;BME280;3848;42.016;23.098;2023-09-19T12:07:05;97013.44;;;33.46;37.14
7614;BME280;3848;42.016;23.098;2023-09-19T12:09:38;96983.91;;;33.34;37.76
7614;BME280;3848;42.016;23.098;2023-09-19T12:12:06;97006.25;;;33.64;36.81
7614;BME280;3848;42.016;23.098;2023-09-19T12:14:34;96993.88;;;33.99;37.78
7614;BME280;3848;42.016;23.098;2023-09-19T12:17:01;96996.44;;;34.41;38.18
7614;BME280;3848;42.016;23.098;2023-09-19T12:19:29;96982.56;;;34.79;37.47
7614;BME280;3848;42.016;23.098;2023-09-19T12:22:02;96998.91;;;34.99;36.57
7614;BME280;3848;42.016;23.098;2023-09-19T12:24:31;96987.00;;;34.71;36.97
7614;BME280;3848;42.016;23.098;2023-09-19T12:27:02;97000.72;;;34.42;37.57
7614;BME280;3848;42.016;23.098;2023-09-19T12:29:31;96992.19;;;33.89;38.01
7614;BME280;3848;42.016;23.098;2023-09-19T12:31:59;96984.34;;;33.63;40.46
7614;BME280;3848;42.016;23.098;2023-09-19T12:34:30;96998.44;;;33.46;38.76
7614;BME280;3848;42.016;23.098;2023-09-19T12:37:11;96993.22;;;33.28;38.44
7614;BME280;3848;42.016;23.098;2023-09-19T12:39:42;96993.53;;;33.25;38.54
7614;BME280;3848;42.016;23.098;2023-09-19T12:42:10;96971.28;;;33.12;40.30
7614;BME280;3848;42.016;23.098;2023-09-19T12:44:41;96979.47;;;33.09;40.74
7614;BME280;3848;42.016;23.098;2023-09-19T12:47:13;96977.91;;;32.72;40.62
7614;BME280;3848;42.016;23.098;2023-09-19T12:50:09;96982.22;;;32.55;40.19
7614;BME280;3848;42.016;23.098;2023-09-19T12:52:43;96970.72;;;32.21;41.27
7614;BME280;3848;42.016;23.098;2023-09-19T12:55:20;96971.47;;;32.13;44.51
7614;BME280;3848;42.016;23.098;2023-09-19T12:58:08;96963.50;;;32.05;46.15
7614;BME280;3848;42.016;23.098;2023-09-19T13:00:36;96955.53;;;32.14;46.03
7614;BME280;3848;42.016;23.098;2023-09-19T13:03:18;96962.78;;;32.30;45.24
7614;BME280;3848;42.016;23.098;2023-09-19T13:05:54;96946.91;;;32.40;42.85
7614;BME280;3848;42.016;23.098;2023-09-19T13:08:29;96958.94;;;32.86;42.89
7614;BME280;3848;42.016;23.098;2023-09-19T13:11:06;96939.72;;;33.28;42.14
7614;BME280;3848;42.016;23.098;2023-09-19T13:13:36;96937.72;;;33.56;41.27
7614;BME280;3848;42.016;23.098;2023-09-19T13:16:03;96937.22;;;33.69;40.54
7614;BME280;3848;42.016;23.098;2023-09-19T13:18:41;96939.28;;;33.91;40.57
7614;BME280;3848;42.016;23.098;2023-09-19T13:21:11;96928.06;;;33.89;40.16